sensor_id;sensor_type;location;lat;lon;timestamp;pressure;altitude;pressure_sealevel;temperature;humidity
71195;BME280;58908;51.426;7.714;2023-02-18T00:02:02;100341.28;;;9.53;100.00
71195;BME280;58908;51.426;7.714;2023-02-18T00:04:29;100347.28;;;9.56;100.00
71195;BME280;58908;51.426;7.714;2023-02-18T00:06:55;100340.13;;;9.60;100.00
71195;BME280;58908;51.426;7.714;2023-02-18T00:09:21;100336.63;;;9.59;100.00
71195;BME280;58908;51.426;7.714;2023-02-18T00:11:48;100333.00;;;9.62;100.00
71195;BME280;58908;51.426;7.714;2023-02-18T00:14:15;100331.28;;;9.61;100.00
71195;BME280;58908;51.426;7.714;2023-02-18T00:16:42;100340.06;;;9.61;100.00
71195;BME280;58908;51.426;7.714;2023-02-18T00:19:12;100334.78;;;9.61;100.00
71195;BME280;58908;51.426;7.714;2023-02-18T00:21:39;100343.53;;;9.62;100.00
71195;BME280;58908;51.426;7.714;2023-02-18T00:24:06;100341.78;;;9.62;100.00
71195;BME280;58908;51.426;7.714;2023-02-18T00:26:32;100334.84;;;9.60;100.00
71195;BME280;58908;51.426;7.714;2023-02-18T00:28:59;100340.13;;;9.60;100.00
71195;BME280;58908;51.426;7.714;2023-02-18T00:31:27;100334.91;;;9.58;100.00
71195;BME280;58908;51.426;7.714;2023-02-18T00:33:55;100348.06;;;9.58;100.00
71195;BME280;58908;51.426;7.714;2023-02-18T00:36:21;100343.88;;;9.54;100.00
71195;BME280;58908;51.426;7.714;2023-02-18T00:38:49;100344.81;;;9.53;100.00
71195;BME280;58908;51.426;7.714;2023-02-18T00:41:15;100329.16;;;9.50;100.00
71195;BME280;58908;51.426;7.714;2023-02-18T00:43:42;100330.13;;;9.48;100.00
71195;BME280;58908;51.426;7.714;2023-02-18T00:46:08;100319.59;;;9.48;100.00
71195;BME280;58908;51.426;7.714;2023-02-18T00:48:36;100324.91;;;9.46;100.00
71195;BME280;58908;51.426;7.714;2023-02-18T00:51:02;100321.44;;;9.46;100.00
71195;BME280;58908;51.426;7.714;2023-02-18T00:53:29;100313.59;;;9.44;100.00
71195;BME280;58908;51.426;7.714;2023-02-18T00:55:55;100310.97;;;9.44;100.00
71195;BME280;58908;51.426;7.714;2023-02-18T00:58:21;100310.09;;;9.44;100.00
71195;BME280;58908;51.426;7.714;2023-02-18T01:00:48;100312.72;;;9.44;100.00
71195;BME280;58908;51.426;7.714;2023-02-18T01:03:14;100315.44;;;9.43;100.00
71195;BME280;58908;51.426;7.714;2023-02-18T01:05:42;100315.44;;;9.43;100.00
71195;BME280;58908;51.426;7.714;2023-02-18T01:08:08;100307.56;;;9.43;100.00
71195;BME280;58908;51.426;7.714;2023-02-18T01:10:36;100310.19;;;9.43;100.00
71195;BME280;58908;51.426;7.714;2023-02-18T01:13:05;100306.75;;;9.41;100.00
71195;BME280;58908;51.426;7.714;2023-02-18T01:15:31;100298.06;;;9.38;100.00
71195;BME280;58908;51.426;7.714;2023-02-18T01:17:58;100296.34;;;9.38;100.00
71195;BME280;58908;51.426;7.714;2023-02-18T01:20:24;100301.69;;;9.36;100.00
71195;BME280;58908;51.426;7.714;2023-02-18T01:22:52;100300.03;;;9.34;100.00
71195;BME280;58908;51.426;7.714;2023-02-18T01:25:18;100306.28;;;9.31;100.00
71195;BME280;58908;51.426;7.714;2023-02-18T01:27:45;100308.91;;;9.31;100.00
71195;BME280;58908;51.426;7.714;2023-02-18T01:30:11;100308.91;;;9.31;100.00
71195;BME280;58908;51.426;7.714;2023-02-18T01:32:39;100303.78;;;9.28;100.00
71195;BME280;58908;51.426;7.714;2023-02-18T01:35:05;100307.31;;;9.29;100.00
71195;BME280;58908;51.426;7.714;2023-02-18T01:37:32;100299.41;;;9.29;100.00
71195;BME280;58908;51.426;7.714;2023-02-18T01:40:00;100304.66;;;9.29;100.00
71195;BME280;58908;51.426;7.714;2023-02-18T01:42:27;100301.13;;;9.30;100.00
71195;BME280;58908;51.426;7.714;2023-02-18T01:45:39;100297.56;;;9.31;100.00
71195;BME280;58908;51.426;7.714;2023-02-18T01:47:39;100292.34;;;9.29;100.00
71195;BME280;58908;51.426;7.714;2023-02-18T01:50:06;100282.75;;;9.28;100.00
71195;BME280;58908;51.426;7.714;2023-02-18T01:52:32;100286.25;;;9.29;100.00
71195;BME280;58908;51.426;7.714;2023-02-18T01:54:59;100281.91;;;9.28;100.00
71195;BME280;58908;51.426;7.714;2023-02-18T01:57:28;100281.03;;;9.27;100.00
71195;BME280;58908;51.426;7.714;2023-02-18T01:59:55;100269.56;;;9.28;100.00
71195;BME280;58908;51.426;7.714;2023-02-18T02:02:24;100273.91;;;9.29;100.00
71195;BME280;58908;51.426;7.714;2023-02-18T02:04:51;100279.19;;;9.29;100.00
71195;BME280;58908;51.426;7.714;2023-02-18T02:07:18;100283.59;;;9.29;100.00
71195;BME280;58908;51.426;7.714;2023-02-18T02:09:45;100281.91;;;9.28;100.00
71195;BME280;58908;51.426;7.714;2023-02-18T02:12:20;100274.84;;;9.28;100.00
71195;BME280;58908;51.426;7.714;2023-02-18T02:14:53;100279.28;;;9.28;100.00
71195;BME280;58908;51.426;7.714;2023-02-18T02:17:25;100276.63;;;9.28;100.00
71195;BME280;58908;51.426;7.714;2023-02-18T02:20:01;100283.66;;;9.27;100.00
71195;BME280;58908;51.426;7.714;2023-02-18T02:22:56;100279.31;;;9.26;100.00
71195;BME280;58908;51.426;7.714;2023-02-18T02:25:34;100285.44;;;9.27;100.00
71195;BME280;58908;51.426;7.714;2023-02-18T02:28:14;100277.53;;;9.27;100.00
71195;BME280;58908;51.426;7.714;2023-02-18T02:30:53;100279.19;;;9.29;100.00
71195;BME280;58908;51.426;7.714;2023-02-18T02:36:18;100264.38;;;9.27;100.00
71195;BME280;58908;51.426;7.714;2023-02-18T02:38:48;100258.31;;;9.25;100.00
71195;BME280;58908;51.426;7.714;2023-02-18T02:41:20;100250.50;;;9.23;100.00
71195;BME280;58908;51.426;7.714;2023-02-18T02:43:51;100243.53;;;9.22;100.00
71195;BME280;58908;51.426;7.714;2023-02-18T02:46:18;100243.53;;;9.22;100.00
71195;BME280;58908;51.426;7.714;2023-02-18T02:48:47;100238.34;;;9.21;100.00
71195;BME280;58908;51.426;7.714;2023-02-18T02:51:14;100240.97;;;9.21;100.00
71195;BME280;58908;51.426;7.714;2023-02-18T02:53:44;100241.75;;;9.23;100.00
71195;BME280;58908;51.426;7.714;2023-02-18T02:56:13;100235.66;;;9.22;100.00
71195;BME280;58908;51.426;7.714;2023-02-18T02:58:39;100236.34;;;9.26;100.00
71195;BME280;58908;51.426;7.714;2023-02-18T03:01:14;100235.34;;;9.28;100.00
71195;BME280;58908;51.426;7.714;2023-02-18T03:03:50;100237.16;;;9.28;100.00
71195;BME280;58908;51.426;7.714;2023-02-18T03:06:32;100224.88;;;9.27;100.00
71195;BME280;58908;51.426;7.714;2023-02-18T03:09:06;100230.16;;;9.27;100.00
71195;BME280;58908;51.426;7.714;2023-02-18T03:11:38;100226.63;;;9.28;100.00
71195;BME280;58908;51.426;7.714;2023-02-18T03:14:08;100219.56;;;9.28;100.00
71195;BME280;58908;51.426;7.714;2023-02-18T03:16:40;100212.44;;;9.30;100.00
71195;BME280;58908;51.426;7.714;2023-02-18T03:19:12;100209.69;;;9.33;100.00
71195;BME280;58908;51.426;7.714;2023-02-18T03:21:43;100206.13;;;9.34;100.00
71195;BME280;58908;51.426;7.714;2023-02-18T03:24:15;100192.09;;;9.34;100.00
71195;BME280;58908;51.426;7.714;2023-02-18T03:26:44;100179.72;;;9.36;100.00
71195;BME280;58908;51.426;7.714;2023-02-18T03:29:12;100175.31;;;9.36;100.00
71195;BME280;58908;51.426;7.714;2023-02-18T03:31:40;100164.72;;;9.38;100.00
71195;BME280;58908;51.426;7.714;2023-02-18T03:34:09;100164.84;;;9.35;100.00
71195;BME280;58908;51.426;7.714;2023-02-18T03:36:36;100172.50;;;9.41;100.00
71195;BME280;58908;51.426;7.714;2023-02-18T03:39:03;100152.34;;;9.40;100.00
71195;BME280;58908;51.426;7.714;2023-02-18T03:41:32;100157.63;;;9.40;100.00
71195;BME280;58908;51.426;7.714;2023-02-18T03:43:59;100152.25;;;9.41;100.00
71195;BME280;58908;51.426;7.714;2023-02-18T03:46:26;100153.19;;;9.40;100.00
71195;BME280;58908;51.426;7.714;2023-02-18T03:48:52;100147.94;;;9.40;100.00
71195;BME280;58908;51.426;7.714;2023-02-18T03:51:19;100148.84;;;9.39;100.00
71195;BME280;58908;51.426;7.714;2023-02-18T03:53:45;100155.00;;;9.40;100.00
71195;BME280;58908;51.426;7.714;2023-02-18T03:56:13;100149.72;;;9.40;100.00
71195;BME280;58908;51.426;7.714;2023-02-18T03:58:40;100145.50;;;9.36;100.00
71195;BME280;58908;51.426;7.714;2023-02-18T04:01:07;100145.50;;;9.36;100.00
71195;BME280;58908;51.426;7.714;2023-02-18T04:03:33;100132.34;;;9.36;100.00
71195;BME280;58908;51.426;7.714;2023-02-18T04:05:59;100130.63;;;9.35;100.00
71195;BME280;58908;51.426;7.714;2023-02-18T04:08:25;100123.72;;;9.32;100.00
71195;BME280;58908;51.426;7.714;2023-02-18T04:10:51;100136.88;;;9.32;100.00
71195;BME280;58908;51.426;7.714;2023-02-18T04:13:18;100128.00;;;9.35;100.00
71195;BME280;58908;51.426;7.714;2023-02-18T04:15:47;100129.78;;;9.34;100.00
71195;BME280;58908;51.426;7.714;2023-02-18T04:18:13;100128.88;;;9.35;100.00
71195;BME280;58908;51.426;7.714;2023-02-18T04:20:40;100112.06;;;9.38;100.00
71195;BME280;58908;51.426;7.714;2023-02-18T04:23:06;100112.97;;;9.37;100.00
71195;BME280;58908;51.426;7.714;2023-02-18T04:25:32;100113.69;;;9.40;100.00
71195;BME280;58908;51.426;7.714;2023-02-18T04:27:59;100102.19;;;9.43;100.00
71195;BME280;58908;51.426;7.714;2023-02-18T04:30:25;100095.94;;;9.45;100.00
71195;BME280;58908;51.426;7.714;2023-02-18T04:32:53;100101.19;;;9.45;100.00
71195;BME280;58908;51.426;7.714;2023-02-18T04:35:20;100101.09;;;9.46;100.00
71195;BME280;58908;51.426;7.714;2023-02-18T04:37:46;100097.53;;;9.47;100.00
71195;BME280;58908;51.426;7.714;2023-02-18T04:40:12;100092.28;;;9.47;100.00
71195;BME280;58908;51.426;7.714;2023-02-18T04:42:39;100093.13;;;9.48;100.00
71195;BME280;58908;51.426;7.714;2023-02-18T04:45:06;100081.53;;;9.52;100.00
71195;BME280;58908;51.426;7.714;2023-02-18T04:47:32;100068.44;;;9.50;100.00
71195;BME280;58908;51.426;7.714;2023-02-18T04:50:00;100068.44;;;9.50;100.00
71195;BME280;58908;51.426;7.714;2023-02-18T04:52:26;100066.66;;;9.51;100.00
71195;BME280;58908;51.426;7.714;2023-02-18T04:54:52;100064.78;;;9.53;100.00
71195;BME280;58908;51.426;7.714;2023-02-18T04:57:18;100063.97;;;9.52;100.00
71195;BME280;58908;51.426;7.714;2023-02-18T04:59:45;100072.63;;;9.54;100.00
71195;BME280;58908;51.426;7.714;2023-02-18T05:02:11;100060.09;;;9.59;100.00
71195;BME280;58908;51.426;7.714;2023-02-18T05:04:37;100054.03;;;9.57;100.00
71195;BME280;58908;51.426;7.714;2023-02-18T05:07:05;100049.75;;;9.55;100.00
71195;BME280;58908;51.426;7.714;2023-02-18T05:09:31;100053.41;;;9.52;100.00
71195;BME280;58908;51.426;7.714;2023-02-18T05:11:57;100058.91;;;9.48;100.00
71195;BME280;58908;51.426;7.714;2023-02-18T05:14:23;100050.28;;;9.44;100.00
71195;BME280;58908;51.426;7.714;2023-02-18T05:16:50;100045.19;;;9.42;100.00
71195;BME280;58908;51.426;7.714;2023-02-18T05:19:16;100038.34;;;9.38;100.00
71195;BME280;58908;51.426;7.714;2023-02-18T05:21:42;100042.91;;;9.34;100.00
71195;BME280;58908;51.426;7.714;2023-02-18T05:24:10;100044.84;;;9.31;100.00
71195;BME280;58908;51.426;7.714;2023-02-18T05:26:36;100039.63;;;9.29;100.00
71195;BME280;58908;51.426;7.714;2023-02-18T05:29:03;100031.75;;;9.29;100.00
71195;BME280;58908;51.426;7.714;2023-02-18T05:31:29;100036.22;;;9.27;100.00
71195;BME280;58908;51.426;7.714;2023-02-18T05:33:56;100029.31;;;9.25;100.00
71195;BME280;58908;51.426;7.714;2023-02-18T05:36:22;100028.50;;;9.24;100.00
71195;BME280;58908;51.426;7.714;2023-02-18T05:38:48;100019.72;;;9.24;100.00
71195;BME280;58908;51.426;7.714;2023-02-18T05:41:16;100027.72;;;9.22;100.00
71195;BME280;58908;51.426;7.714;2023-02-18T05:43:42;100016.25;;;9.23;100.00
71195;BME280;58908;51.426;7.714;2023-02-18T05:46:26;100021.59;;;9.22;100.00
71195;BME280;58908;51.426;7.714;2023-02-18T05:48:52;100007.56;;;9.21;100.00
71195;BME280;58908;51.426;7.714;2023-02-18T05:51:18;100004.88;;;9.23;100.00
71195;BME280;58908;51.426;7.714;2023-02-18T05:53:44;99999.66;;;9.21;100.00
71195;BME280;58908;51.426;7.714;2023-02-18T05:56:11;99995.41;;;9.19;100.00
71195;BME280;58908;51.426;7.714;2023-02-18T05:58:38;99974.38;;;9.19;100.00
71195;BME280;58908;51.426;7.714;2023-02-18T06:01:04;99975.19;;;9.19;100.00
71195;BME280;58908;51.426;7.714;2023-02-18T06:03:31;99973.50;;;9.18;100.00
71195;BME280;58908;51.426;7.714;2023-02-18T06:05:57;99977.78;;;9.21;100.00
71195;BME280;58908;51.426;7.714;2023-02-18T06:08:23;99968.06;;;9.21;100.00
71195;BME280;58908;51.426;7.714;2023-02-18T06:10:49;99963.84;;;9.19;100.00
71195;BME280;58908;51.426;7.714;2023-02-18T06:13:16;99966.38;;;9.20;100.00
71195;BME280;58908;51.426;7.714;2023-02-18T06:15:43;99959.41;;;9.19;100.00
71195;BME280;58908;51.426;7.714;2023-02-18T06:18:10;99963.75;;;9.20;100.00
71195;BME280;58908;51.426;7.714;2023-02-18T06:20:37;99954.84;;;9.23;100.00
71195;BME280;58908;51.426;7.714;2023-02-18T06:23:03;99957.44;;;9.24;100.00
71195;BME280;58908;51.426;7.714;2023-02-18T06:25:30;99959.03;;;9.27;100.00
71195;BME280;58908;51.426;7.714;2023-02-18T06:27:56;99944.16;;;9.26;100.00
71195;BME280;58908;51.426;7.714;2023-02-18T06:30:22;99936.97;;;9.29;100.00
71195;BME280;58908;51.426;7.714;2023-02-18T06:32:50;99932.72;;;9.27;100.00
71195;BME280;58908;51.426;7.714;2023-02-18T06:35:16;99936.28;;;9.26;100.00
71195;BME280;58908;51.426;7.714;2023-02-18T06:37:42;99938.13;;;9.24;100.00
71195;BME280;58908;51.426;7.714;2023-02-18T06:40:10;99934.66;;;9.23;100.00
71195;BME280;58908;51.426;7.714;2023-02-18T06:42:36;99939.06;;;9.23;100.00
71195;BME280;58908;51.426;7.714;2023-02-18T06:45:02;99942.56;;;9.23;100.00
71195;BME280;58908;51.426;7.714;2023-02-18T06:47:30;99944.47;;;9.20;100.00
71195;BME280;58908;51.426;7.714;2023-02-18T06:49:58;99939.13;;;9.21;100.00
71195;BME280;58908;51.426;7.714;2023-02-18T06:52:24;99939.94;;;9.23;100.00
71195;BME280;58908;51.426;7.714;2023-02-18T06:54:50;99942.47;;;9.25;100.00
71195;BME280;58908;51.426;7.714;2023-02-18T06:57:16;99954.84;;;9.23;100.00
71195;BME280;58908;51.426;7.714;2023-02-18T06:59:43;99939.22;;;9.20;100.00
71195;BME280;58908;51.426;7.714;2023-02-18T07:02:09;99955.84;;;9.20;100.00
71195;BME280;58908;51.426;7.714;2023-02-18T07:04:36;99957.66;;;9.20;100.00
71195;BME280;58908;51.426;7.714;2023-02-18T07:07:03;99948.81;;;9.21;100.00
71195;BME280;58908;51.426;7.714;2023-02-18T07:09:29;99954.09;;;9.21;100.00
71195;BME280;58908;51.426;7.714;2023-02-18T07:11:56;99959.41;;;9.19;100.00
71195;BME280;58908;51.426;7.714;2023-02-18T07:14:22;99950.53;;;9.22;100.00
71195;BME280;58908;51.426;7.714;2023-02-18T07:16:48;99954.84;;;9.23;100.00
71195;BME280;58908;51.426;7.714;2023-02-18T07:19:15;99943.41;;;9.24;100.00
71195;BME280;58908;51.426;7.714;2023-02-18T07:21:41;99944.25;;;9.24;100.00
71195;BME280;58908;51.426;7.714;2023-02-18T07:24:09;99944.16;;;9.26;100.00
71195;BME280;58908;51.426;7.714;2023-02-18T07:26:35;99947.66;;;9.26;100.00
71195;BME280;58908;51.426;7.714;2023-02-18T07:29:01;99948.44;;;9.28;100.00
71195;BME280;58908;51.426;7.714;2023-02-18T07:31:27;99935.34;;;9.27;100.00
71195;BME280;58908;51.426;7.714;2023-02-18T07:33:54;99938.13;;;9.24;100.00
71195;BME280;58908;51.426;7.714;2023-02-18T07:36:20;99946.03;;;9.24;100.00
71195;BME280;58908;51.426;7.714;2023-02-18T07:38:46;99951.28;;;9.24;100.00
71195;BME280;58908;51.426;7.714;2023-02-18T07:41:16;99967.94;;;9.24;100.00
71195;BME280;58908;51.426;7.714;2023-02-18T07:43:42;99978.59;;;9.21;100.00
71195;BME280;58908;51.426;7.714;2023-02-18T07:46:08;99977.94;;;9.18;100.00
71195;BME280;58908;51.426;7.714;2023-02-18T07:48:35;99984.78;;;9.20;100.00
71195;BME280;58908;51.426;7.714;2023-02-18T07:51:04;99984.94;;;9.17;100.00
71195;BME280;58908;51.426;7.714;2023-02-18T07:53:30;99981.53;;;9.15;100.00
71195;BME280;58908;51.426;7.714;2023-02-18T07:55:57;99978.03;;;9.15;100.00
71195;BME280;58908;51.426;7.714;2023-02-18T07:58:27;99978.84;;;9.17;100.00
71195;BME280;58908;51.426;7.714;2023-02-18T08:00:53;99981.50;;;9.17;100.00
71195;BME280;58908;51.426;7.714;2023-02-18T08:03:20;99984.25;;;9.14;100.00
71195;BME280;58908;51.426;7.714;2023-02-18T08:05:46;99984.41;;;9.11;100.00
71195;BME280;58908;51.426;7.714;2023-02-18T08:08:13;99991.50;;;9.09;100.00
71195;BME280;58908;51.426;7.714;2023-02-18T08:10:40;99996.94;;;9.06;100.00
71195;BME280;58908;51.426;7.714;2023-02-18T08:13:06;99999.69;;;9.03;100.00
71195;BME280;58908;51.426;7.714;2023-02-18T08:15:34;99996.13;;;9.04;100.00
71195;BME280;58908;51.426;7.714;2023-02-18T08:18:01;99992.56;;;9.05;100.00
71195;BME280;58908;51.426;7.714;2023-02-18T08:20:27;100002.31;;;9.03;100.00
71195;BME280;58908;51.426;7.714;2023-02-18T08:22:53;99997.91;;;9.03;100.00
71195;BME280;58908;51.426;7.714;2023-02-18T08:25:19;100003.19;;;9.03;100.00
71195;BME280;58908;51.426;7.714;2023-02-18T08:27:46;100003.03;;;9.06;100.00
71195;BME280;58908;51.426;7.714;2023-02-18T08:30:12;100008.06;;;9.11;100.00
71195;BME280;58908;51.426;7.714;2023-02-18T08:32:40;100006.22;;;9.13;100.00
71195;BME280;58908;51.426;7.714;2023-02-18T08:35:06;99989.84;;;9.25;100.00
71195;BME280;58908;51.426;7.714;2023-02-18T08:37:33;99997.38;;;9.32;100.00
71195;BME280;58908;51.426;7.714;2023-02-18T08:40:00;100001.81;;;9.48;100.00
71195;BME280;58908;51.426;7.714;2023-02-18T08:42:26;99993.19;;;9.63;100.00
71195;BME280;58908;51.426;7.714;2023-02-18T08:44:52;100004.72;;;9.61;100.00
71195;BME280;58908;51.426;7.714;2023-02-18T08:47:19;100003.94;;;9.59;100.00
71195;BME280;58908;51.426;7.714;2023-02-18T08:49:46;100010.34;;;9.53;100.00
71195;BME280;58908;51.426;7.714;2023-02-18T08:52:13;100013.50;;;9.43;100.00
71195;BME280;58908;51.426;7.714;2023-02-18T08:54:39;99997.84;;;9.40;100.00
71195;BME280;58908;51.426;7.714;2023-02-18T08:57:05;99996.09;;;9.41;100.00
71195;BME280;58908;51.426;7.714;2023-02-18T08:59:31;99995.16;;;9.42;100.00
71195;BME280;58908;51.426;7.714;2023-02-18T09:01:58;99987.38;;;9.38;100.00
71195;BME280;58908;51.426;7.714;2023-02-18T09:04:24;99993.47;;;9.41;100.00
71195;BME280;58908;51.426;7.714;2023-02-18T09:06:52;99980.91;;;9.29;100.00
71195;BME280;58908;51.426;7.714;2023-02-18T09:09:18;99994.19;;;9.26;100.00
71195;BME280;58908;51.426;7.714;2023-02-18T09:11:44;99983.31;;;9.33;100.00
71195;BME280;58908;51.426;7.714;2023-02-18T09:14:11;99972.53;;;9.38;100.00
71195;BME280;58908;51.426;7.714;2023-02-18T09:16:37;99962.09;;;9.36;100.00
71195;BME280;58908;51.426;7.714;2023-02-18T09:19:04;99978.34;;;9.44;100.00
71195;BME280;58908;51.426;7.714;2023-02-18T09:21:30;99975.31;;;9.35;100.00
71195;BME280;58908;51.426;7.714;2023-02-18T09:23:58;99966.25;;;9.40;100.00
71195;BME280;58908;51.426;7.714;2023-02-18T09:26:24;99964.19;;;9.46;100.00
71195;BME280;58908;51.426;7.714;2023-02-18T09:28:51;99980.41;;;9.56;100.00
71195;BME280;58908;51.426;7.714;2023-02-18T09:31:19;99986.72;;;9.52;100.00
71195;BME280;58908;51.426;7.714;2023-02-18T09:33:46;99975.59;;;9.47;100.00
71195;BME280;58908;51.426;7.714;2023-02-18T09:36:13;99996.00;;;9.42;100.00
71195;BME280;58908;51.426;7.714;2023-02-18T09:38:40;100000.66;;;9.37;100.00
71195;BME280;58908;51.426;7.714;2023-02-18T09:41:09;99999.94;;;9.34;100.00
71195;BME280;58908;51.426;7.714;2023-02-18T09:43:39;99990.41;;;9.31;100.00
71195;BME280;58908;51.426;7.714;2023-02-18T09:46:09;99995.19;;;9.23;100.00
71195;BME280;58908;51.426;7.714;2023-02-18T09:48:40;99996.41;;;9.16;100.00
71195;BME280;58908;51.426;7.714;2023-02-18T09:51:09;100000.25;;;9.09;100.00
71195;BME280;58908;51.426;7.714;2023-02-18T09:53:38;99991.56;;;9.07;100.00
71195;BME280;58908;51.426;7.714;2023-02-18T09:56:04;99992.81;;;9.00;100.00
71195;BME280;58908;51.426;7.714;2023-02-18T09:58:32;99989.38;;;8.98;100.00
71195;BME280;58908;51.426;7.714;2023-02-18T10:01:02;99991.00;;;9.01;100.00
71195;BME280;58908;51.426;7.714;2023-02-18T10:03:29;99973.47;;;9.01;100.00
71195;BME280;58908;51.426;7.714;2023-02-18T10:05:56;99977.66;;;9.05;100.00
71195;BME280;58908;51.426;7.714;2023-02-18T10:08:24;99976.72;;;9.06;100.00
71195;BME280;58908;51.426;7.714;2023-02-18T10:10:51;99978.56;;;9.04;100.00
71195;BME280;58908;51.426;7.714;2023-02-18T10:13:18;99973.25;;;9.06;100.00
71195;BME280;58908;51.426;7.714;2023-02-18T10:15:47;99989.25;;;9.01;100.00
71195;BME280;58908;51.426;7.714;2023-02-18T10:18:17;99977.09;;;8.99;100.00
71195;BME280;58908;51.426;7.714;2023-02-18T10:20:45;99983.44;;;8.95;100.00
71195;BME280;58908;51.426;7.714;2023-02-18T10:23:11;99992.22;;;8.94;100.00
71195;BME280;58908;51.426;7.714;2023-02-18T10:25:41;99992.16;;;8.95;100.00
71195;BME280;58908;51.426;7.714;2023-02-18T10:28:08;99980.00;;;8.93;100.00
71195;BME280;58908;51.426;7.714;2023-02-18T10:30:36;99993.50;;;8.85;100.00
71195;BME280;58908;51.426;7.714;2023-02-18T10:33:10;99995.34;;;8.83;100.00
71195;BME280;58908;51.426;7.714;2023-02-18T10:35:43;99984.78;;;8.85;100.00
71195;BME280;58908;51.426;7.714;2023-02-18T10:38:14;100006.03;;;8.80;100.00
71195;BME280;58908;51.426;7.714;2023-02-18T10:40:45;99992.94;;;8.79;100.00
71195;BME280;58908;51.426;7.714;2023-02-18T10:43:18;100001.97;;;8.92;100.00
71195;BME280;58908;51.426;7.714;2023-02-18T10:45:48;100004.13;;;8.84;100.00
71195;BME280;58908;51.426;7.714;2023-02-18T10:48:21;100015.09;;;8.73;100.00
71195;BME280;58908;51.426;7.714;2023-02-18T10:50:50;100003.16;;;8.66;100.00
71195;BME280;58908;51.426;7.714;2023-02-18T10:53:18;100000.47;;;8.68;100.00
71195;BME280;58908;51.426;7.714;2023-02-18T10:55:47;99993.88;;;8.78;100.00
71195;BME280;58908;51.426;7.714;2023-02-18T10:58:24;100005.94;;;8.82;100.00
71195;BME280;58908;51.426;7.714;2023-02-18T11:00:51;100002.75;;;8.75;100.00
71195;BME280;58908;51.426;7.714;2023-02-18T11:03:18;99994.28;;;8.87;100.00
71195;BME280;58908;51.426;7.714;2023-02-18T11:05:46;99994.38;;;8.86;100.00
71195;BME280;58908;51.426;7.714;2023-02-18T11:08:15;100006.66;;;8.85;100.00
71195;BME280;58908;51.426;7.714;2023-02-18T11:10:42;100004.22;;;8.81;100.00
71195;BME280;58908;51.426;7.714;2023-02-18T11:13:10;100001.97;;;8.73;100.00
71195;BME280;58908;51.426;7.714;2023-02-18T11:15:38;100003.59;;;8.76;100.00
71195;BME280;58908;51.426;7.714;2023-02-18T11:18:24;100010.06;;;8.87;100.00
71195;BME280;58908;51.426;7.714;2023-02-18T11:20:55;100012.28;;;8.78;100.00
71195;BME280;58908;51.426;7.714;2023-02-18T11:23:22;100007.16;;;8.75;100.00
71195;BME280;58908;51.426;7.714;2023-02-18T11:25:53;100008.09;;;8.74;100.00
71195;BME280;58908;51.426;7.714;2023-02-18T11:28:30;100023.56;;;8.80;100.00
71195;BME280;58908;51.426;7.714;2023-02-18T11:30:58;100003.97;;;8.87;100.00
71195;BME280;58908;51.426;7.714;2023-02-18T11:33:28;100014.63;;;8.84;100.00
71195;BME280;58908;51.426;7.714;2023-02-18T11:36:02;99998.69;;;8.68;100.00
71195;BME280;58908;51.426;7.714;2023-02-18T11:38:33;100004.53;;;8.75;100.00
71195;BME280;58908;51.426;7.714;2023-02-18T11:41:01;100004.38;;;8.78;100.00
71195;BME280;58908;51.426;7.714;2023-02-18T11:43:29;99994.00;;;8.75;100.00
71195;BME280;58908;51.426;7.714;2023-02-18T11:46:07;100007.38;;;8.70;100.00
71195;BME280;58908;51.426;7.714;2023-02-18T11:48:33;100007.06;;;8.76;100.00
71195;BME280;58908;51.426;7.714;2023-02-18T11:51:01;100002.47;;;8.63;100.00
71195;BME280;58908;51.426;7.714;2023-02-18T11:53:28;100006.78;;;8.64;100.00
71195;BME280;58908;51.426;7.714;2023-02-18T11:55:55;99996.84;;;8.70;100.00
71195;BME280;58908;51.426;7.714;2023-02-18T11:58:22;100004.94;;;8.66;100.00
71195;BME280;58908;51.426;7.714;2023-02-18T12:00:49;100002.72;;;8.57;100.00
71195;BME280;58908;51.426;7.714;2023-02-18T12:03:17;100004.63;;;8.53;100.00
71195;BME280;58908;51.426;7.714;2023-02-18T12:05:49;100004.63;;;8.53;100.00
71195;BME280;58908;51.426;7.714;2023-02-18T12:08:18;99996.53;;;8.58;100.00
71195;BME280;58908;51.426;7.714;2023-02-18T12:10:47;99995.81;;;8.54;100.00
71195;BME280;58908;51.426;7.714;2023-02-18T12:13:19;100011.34;;;8.60;100.00
71195;BME280;58908;51.426;7.714;2023-02-18T12:15:51;100013.19;;;8.58;100.00
71195;BME280;58908;51.426;7.714;2023-02-18T12:18:26;100005.38;;;8.75;100.00
71195;BME280;58908;51.426;7.714;2023-02-18T12:21:16;100003.81;;;8.71;100.00
71195;BME280;58908;51.426;7.714;2023-02-18T12:23:49;100010.16;;;8.67;100.00
71195;BME280;58908;51.426;7.714;2023-02-18T12:26:20;100002.03;;;8.72;100.00
71195;BME280;58908;51.426;7.714;2023-02-18T12:28:52;100013.19;;;8.77;100.00
71195;BME280;58908;51.426;7.714;2023-02-18T12:31:32;99998.41;;;8.74;100.00
71195;BME280;58908;51.426;7.714;2023-02-18T12:34:07;99998.03;;;8.82;100.00
71195;BME280;58908;51.426;7.714;2023-02-18T12:36:44;100000.00;;;8.78;100.00
71195;BME280;58908;51.426;7.714;2023-02-18T12:39:17;99999.75;;;8.83;100.00
71195;BME280;58908;51.426;7.714;2023-02-18T12:41:53;100000.41;;;8.88;100.00
71195;BME280;58908;51.426;7.714;2023-02-18T12:44:30;100001.50;;;8.84;100.00
71195;BME280;58908;51.426;7.714;2023-02-18T12:47:01;99998.00;;;8.83;100.00
71195;BME280;58908;51.426;7.714;2023-02-18T12:49:43;100007.53;;;8.86;100.00
71195;BME280;58908;51.426;7.714;2023-02-18T12:52:16;100013.56;;;8.88;100.00
71195;BME280;58908;51.426;7.714;2023-02-18T12:57:39;100011.00;;;8.86;100.00
71195;BME280;58908;51.426;7.714;2023-02-18T13:02:57;100012.63;;;8.89;100.00
71195;BME280;58908;51.426;7.714;2023-02-18T13:05:30;100017.84;;;8.90;100.00
71195;BME280;58908;51.426;7.714;2023-02-18T13:08:02;100021.44;;;8.88;100.00